X  Sluiten METAR luchtvaart weer gegevens      EHAM Amsterdam Airport Schiphol
Temperatuur
14°C Temperatuur
14°C Dauwpunt
100% Vochtigheid



Wind
16 KM/U
10 MPH
4 M/S
9 KTS



330°
NNW
Huidig weer

Lichte Regen Lichte Regen
Luchtdruk 1005.08 (hPa) - 29.68 (inHg)
Zicht 5 (mijl) - 8 (km)
Vliegveld
Vliegveld code EHAM

Locatie : Amsterdam Airport Schiphol
Afstand: 34 (km)

Metar:
EHAM 212325Z 33009KT 8000 -RA FEW003 BKN040 14/14 Q1005 TEMPO 7000

Tijd: 22-05-2024 01:25 CEST